createdAt,value
2019-03-02T19:06:35.195Z,51.32
2019-03-02T19:09:09.882Z,49.28
2019-03-02T19:11:43.400Z,48.93
2019-03-02T19:14:20.929Z,48.58
2019-03-02T19:16:52.365Z,48.56
2019-03-02T19:19:25.893Z,48.61
2019-03-02T19:21:59.420Z,48.34
2019-03-02T19:24:32.912Z,48.32
2019-03-02T19:27:06.492Z,48.25
2019-03-02T19:29:39.851Z,48.16
2019-03-02T19:32:13.312Z,48.35
2019-03-02T19:34:46.761Z,48.35
2019-03-02T19:37:20.281Z,48.38
2019-03-02T19:39:53.647Z,48.47
2019-03-02T19:42:27.458Z,48.42
2019-03-02T19:45:00.907Z,48.59
2019-03-02T19:47:34.478Z,48.56
2019-03-02T19:50:13.120Z,48.45
2019-03-02T19:52:46.886Z,48.63
2019-03-02T19:55:20.564Z,48.58
2019-03-02T19:57:54.007Z,48.61
2019-03-02T20:00:30.420Z,48.63
2019-03-02T20:03:03.972Z,48.53
2019-03-02T20:05:37.470Z,48.62
2019-03-02T20:08:10.945Z,48.79
2019-03-02T20:10:44.792Z,48.83
2019-03-02T20:13:21.609Z,49.04
2019-03-02T20:15:55.148Z,49.00
2019-03-02T20:18:28.572Z,49.16
2019-03-02T20:21:01.963Z,49.02
2019-03-02T20:23:37.428Z,49.11
2019-03-02T20:26:10.552Z,49.09
2019-03-02T20:28:43.887Z,49.25
2019-03-02T20:31:17.288Z,49.19
2019-03-02T20:33:50.723Z,49.17
2019-03-02T20:36:24.082Z,49.20
2019-03-02T20:38:57.476Z,49.39
2019-03-02T20:41:31.121Z,49.29
2019-03-02T20:44:04.673Z,49.34
2019-03-02T20:46:38.074Z,49.41
2019-03-02T20:49:11.505Z,49.64
2019-03-02T20:51:44.974Z,49.87
2019-03-02T20:54:18.398Z,49.79
2019-03-02T20:56:51.839Z,49.93
2019-03-02T20:59:25.258Z,49.98
2019-03-02T21:01:58.653Z,49.99
2019-03-02T21:04:32.053Z,49.98
2019-03-02T21:07:05.518Z,49.98
2019-03-02T21:09:40.685Z,50.08
2019-03-02T21:12:14.296Z,50.06
2019-03-02T21:14:47.720Z,50.04
2019-03-02T21:17:21.190Z,50.09
2019-03-02T21:19:55.024Z,50.06
2019-03-02T21:22:28.554Z,49.88
2019-03-02T21:25:01.948Z,50.00
2019-03-02T21:27:35.418Z,50.23
2019-03-02T21:30:11.903Z,50.62
2019-03-02T21:32:46.128Z,50.28
2019-03-02T21:35:19.762Z,50.51
2019-03-02T21:37:53.296Z,50.41
2019-03-02T21:40:29.232Z,50.49
2019-03-02T21:43:02.616Z,50.46
2019-03-02T21:45:36.489Z,50.91
2019-03-02T21:48:09.917Z,51.08
2019-03-02T21:50:46.502Z,51.03
2019-03-02T21:53:19.890Z,50.98
2019-03-02T21:55:53.357Z,50.93
2019-03-02T21:58:26.789Z,50.91
2019-03-02T22:01:00.183Z,51.06
2019-03-02T22:03:33.618Z,51.47
2019-03-02T22:06:07.040Z,51.33
2019-03-02T22:08:40.800Z,51.56
2019-03-02T22:11:15.782Z,51.75
2019-03-02T22:13:49.240Z,51.58
2019-03-02T22:16:22.776Z,51.68
2019-03-02T22:18:56.230Z,51.87
2019-03-02T22:21:29.671Z,51.92
2019-03-02T22:24:03.067Z,52.02
2019-03-02T22:26:36.538Z,52.54
2019-03-02T22:29:09.971Z,52.81
2019-03-02T22:31:43.401Z,52.62
2019-03-02T22:34:16.798Z,52.67
2019-03-02T22:36:50.357Z,52.79
2019-03-02T22:39:23.778Z,52.79
2019-03-02T22:41:57.144Z,53.37
2019-03-02T22:44:30.478Z,53.27
2019-03-02T22:47:04.019Z,53.16
2019-03-02T22:49:37.377Z,53.25
2019-03-02T22:52:10.797Z,52.96
2019-03-02T22:54:44.334Z,52.85
2019-03-02T22:57:17.870Z,53.01
2019-03-02T22:59:59.934Z,53.09
2019-03-02T23:02:32.255Z,53.28
2019-03-02T23:05:05.699Z,53.38
2019-03-02T23:07:39.279Z,54.15
2019-03-02T23:10:12.742Z,54.24
2019-03-02T23:12:46.227Z,55.54
2019-03-02T23:15:21.776Z,55.70
2019-03-02T23:17:55.206Z,56.02
2019-03-02T23:20:28.680Z,56.02
2019-03-02T23:23:02.269Z,56.37
2019-03-02T23:25:35.614Z,56.50
2019-03-02T23:28:09.028Z,56.24
2019-03-02T23:30:42.509Z,56.99
2019-03-02T23:33:16.299Z,57.67
2019-03-02T23:35:49.689Z,57.65
2019-03-02T23:38:23.192Z,57.45
2019-03-02T23:40:57.384Z,57.29
2019-03-02T23:43:30.823Z,58.01
2019-03-02T23:46:04.237Z,57.67
2019-03-02T23:48:37.660Z,57.89
2019-03-02T23:51:11.066Z,58.25
2019-03-02T23:53:44.516Z,58.58
2019-03-02T23:56:18.142Z,58.48
2019-03-02T23:58:51.650Z,58.49
